sensor_id;sensor_type;location;lat;lon;timestamp;P1;durP1;ratioP1;P2;durP2;ratioP2
53797;SDS011;39707;45.384;9.300;2024-02-14T00:00:07;0.93;;;0.93;;
53797;SDS011;39707;45.384;9.300;2024-02-14T00:02:38;7.80;;;1.20;;
53797;SDS011;39707;45.384;9.300;2024-02-14T00:05:04;3.58;;;2.00;;
53797;SDS011;39707;45.384;9.300;2024-02-14T00:07:30;3.30;;;1.80;;
53797;SDS011;39707;45.384;9.300;2024-02-14T00:09:56;2.22;;;2.05;;
53797;SDS011;39707;45.384;9.300;2024-02-14T00:12:22;3.40;;;2.83;;
53797;SDS011;39707;45.384;9.300;2024-02-14T00:14:49;2.90;;;2.67;;
53797;SDS011;39707;45.384;9.300;2024-02-14T00:17:15;1.48;;;1.38;;
53797;SDS011;39707;45.384;9.300;2024-02-14T00:19:41;1.73;;;1.30;;
53797;SDS011;39707;45.384;9.300;2024-02-14T00:22:07;0.82;;;0.77;;
53797;SDS011;39707;45.384;9.300;2024-02-14T00:24:33;2.05;;;1.75;;
53797;SDS011;39707;45.384;9.300;2024-02-14T00:27:01;1.25;;;1.23;;
53797;SDS011;39707;45.384;9.300;2024-02-14T00:29:28;2.42;;;2.22;;
53797;SDS011;39707;45.384;9.300;2024-02-14T00:31:54;1.55;;;1.45;;
53797;SDS011;39707;45.384;9.300;2024-02-14T00:34:20;3.50;;;2.03;;
53797;SDS011;39707;45.384;9.300;2024-02-14T00:36:46;2.30;;;2.15;;
53797;SDS011;39707;45.384;9.300;2024-02-14T00:39:13;3.45;;;2.80;;
53797;SDS011;39707;45.384;9.300;2024-02-14T00:41:39;2.97;;;2.07;;
53797;SDS011;39707;45.384;9.300;2024-02-14T00:44:05;1.50;;;1.20;;
53797;SDS011;39707;45.384;9.300;2024-02-14T00:46:31;2.25;;;1.90;;
53797;SDS011;39707;45.384;9.300;2024-02-14T00:48:57;4.63;;;2.42;;
53797;SDS011;39707;45.384;9.300;2024-02-14T00:51:24;3.22;;;3.03;;
53797;SDS011;39707;45.384;9.300;2024-02-14T00:53:51;2.97;;;2.72;;
53797;SDS011;39707;45.384;9.300;2024-02-14T00:56:17;4.88;;;1.10;;
53797;SDS011;39707;45.384;9.300;2024-02-14T00:58:43;1.73;;;1.52;;
53797;SDS011;39707;45.384;9.300;2024-02-14T01:01:09;1.25;;;1.25;;
53797;SDS011;39707;45.384;9.300;2024-02-14T01:03:37;6.82;;;3.17;;
53797;SDS011;39707;45.384;9.300;2024-02-14T01:06:03;2.50;;;2.30;;
53797;SDS011;39707;45.384;9.300;2024-02-14T01:08:29;2.15;;;1.77;;
53797;SDS011;39707;45.384;9.300;2024-02-14T01:10:56;7.87;;;3.43;;
53797;SDS011;39707;45.384;9.300;2024-02-14T01:13:22;2.05;;;1.95;;
53797;SDS011;39707;45.384;9.300;2024-02-14T01:15:48;2.35;;;2.25;;
53797;SDS011;39707;45.384;9.300;2024-02-14T01:18:15;5.93;;;1.83;;
53797;SDS011;39707;45.384;9.300;2024-02-14T01:20:42;5.20;;;3.08;;
53797;SDS011;39707;45.384;9.300;2024-02-14T01:23:08;2.35;;;1.33;;
53797;SDS011;39707;45.384;9.300;2024-02-14T01:25:34;3.65;;;2.40;;
53797;SDS011;39707;45.384;9.300;2024-02-14T01:28:02;2.67;;;2.08;;
53797;SDS011;39707;45.384;9.300;2024-02-14T01:30:28;2.22;;;2.03;;
53797;SDS011;39707;45.384;9.300;2024-02-14T01:32:54;4.75;;;2.17;;
53797;SDS011;39707;45.384;9.300;2024-02-14T01:35:20;2.05;;;1.85;;
53797;SDS011;39707;45.384;9.300;2024-02-14T01:37:46;2.83;;;2.28;;
53797;SDS011;39707;45.384;9.300;2024-02-14T01:40:12;2.15;;;1.23;;
53797;SDS011;39707;45.384;9.300;2024-02-14T01:42:38;3.90;;;2.67;;
53797;SDS011;39707;45.384;9.300;2024-02-14T01:45:04;3.10;;;2.30;;
53797;SDS011;39707;45.384;9.300;2024-02-14T01:47:30;4.15;;;2.83;;
53797;SDS011;39707;45.384;9.300;2024-02-14T01:49:57;2.20;;;2.08;;
53797;SDS011;39707;45.384;9.300;2024-02-14T01:52:23;2.40;;;1.70;;
53797;SDS011;39707;45.384;9.300;2024-02-14T01:54:49;3.03;;;2.80;;
53797;SDS011;39707;45.384;9.300;2024-02-14T01:57:16;1.38;;;1.33;;
53797;SDS011;39707;45.384;9.300;2024-02-14T01:59:42;3.20;;;1.50;;
53797;SDS011;39707;45.384;9.300;2024-02-14T02:02:08;1.92;;;1.77;;
53797;SDS011;39707;45.384;9.300;2024-02-14T02:04:34;1.88;;;1.52;;
53797;SDS011;39707;45.384;9.300;2024-02-14T02:07:01;1.38;;;1.38;;
53797;SDS011;39707;45.384;9.300;2024-02-14T02:09:27;4.18;;;1.35;;
53797;SDS011;39707;45.384;9.300;2024-02-14T02:11:53;1.85;;;1.73;;
53797;SDS011;39707;45.384;9.300;2024-02-14T02:14:20;5.32;;;2.08;;
53797;SDS011;39707;45.384;9.300;2024-02-14T02:16:47;0.95;;;0.95;;
53797;SDS011;39707;45.384;9.300;2024-02-14T02:19:14;3.35;;;1.50;;
53797;SDS011;39707;45.384;9.300;2024-02-14T02:21:41;2.72;;;2.50;;
53797;SDS011;39707;45.384;9.300;2024-02-14T02:24:11;1.50;;;1.40;;
53797;SDS011;39707;45.384;9.300;2024-02-14T02:26:37;2.47;;;2.05;;
53797;SDS011;39707;45.384;9.300;2024-02-14T02:29:02;2.25;;;1.67;;
53797;SDS011;39707;45.384;9.300;2024-02-14T02:31:30;1.13;;;1.13;;
53797;SDS011;39707;45.384;9.300;2024-02-14T02:33:56;4.55;;;1.65;;
53797;SDS011;39707;45.384;9.300;2024-02-14T02:36:22;1.02;;;1.02;;
53797;SDS011;39707;45.384;9.300;2024-02-14T02:38:49;4.07;;;3.30;;
53797;SDS011;39707;45.384;9.300;2024-02-14T02:41:15;1.65;;;1.55;;
53797;SDS011;39707;45.384;9.300;2024-02-14T02:43:41;1.17;;;1.17;;
53797;SDS011;39707;45.384;9.300;2024-02-14T02:46:11;5.30;;;0.90;;
53797;SDS011;39707;45.384;9.300;2024-02-14T02:48:37;1.80;;;1.73;;
53797;SDS011;39707;45.384;9.300;2024-02-14T02:51:03;1.15;;;1.15;;
53797;SDS011;39707;45.384;9.300;2024-02-14T02:53:29;5.40;;;3.88;;
53797;SDS011;39707;45.384;9.300;2024-02-14T02:55:55;3.55;;;2.38;;
53797;SDS011;39707;45.384;9.300;2024-02-14T02:58:22;2.90;;;1.65;;
53797;SDS011;39707;45.384;9.300;2024-02-14T03:00:48;2.05;;;1.95;;
53797;SDS011;39707;45.384;9.300;2024-02-14T03:03:15;3.65;;;1.90;;
53797;SDS011;39707;45.384;9.300;2024-02-14T03:05:41;3.00;;;2.67;;
53797;SDS011;39707;45.384;9.300;2024-02-14T03:08:10;0.80;;;0.77;;
53797;SDS011;39707;45.384;9.300;2024-02-14T03:10:40;0.80;;;0.80;;
53797;SDS011;39707;45.384;9.300;2024-02-14T03:13:07;1.73;;;1.55;;
53797;SDS011;39707;45.384;9.300;2024-02-14T03:15:37;1.65;;;1.55;;
53797;SDS011;39707;45.384;9.300;2024-02-14T03:18:02;1.92;;;1.33;;
53797;SDS011;39707;45.384;9.300;2024-02-14T03:20:34;0.60;;;0.60;;
53797;SDS011;39707;45.384;9.300;2024-02-14T03:23:01;2.20;;;2.00;;
53797;SDS011;39707;45.384;9.300;2024-02-14T03:25:28;1.77;;;1.23;;
53797;SDS011;39707;45.384;9.300;2024-02-14T03:27:55;1.50;;;1.42;;
53797;SDS011;39707;45.384;9.300;2024-02-14T03:30:22;2.20;;;2.00;;
53797;SDS011;39707;45.384;9.300;2024-02-14T03:32:48;2.72;;;2.15;;
53797;SDS011;39707;45.384;9.300;2024-02-14T03:35:15;0.73;;;0.73;;
53797;SDS011;39707;45.384;9.300;2024-02-14T03:37:43;2.03;;;1.42;;
53797;SDS011;39707;45.384;9.300;2024-02-14T03:40:12;1.10;;;1.10;;
53797;SDS011;39707;45.384;9.300;2024-02-14T03:42:38;1.17;;;1.08;;
53797;SDS011;39707;45.384;9.300;2024-02-14T03:45:05;1.55;;;1.45;;
53797;SDS011;39707;45.384;9.300;2024-02-14T03:47:31;2.65;;;2.03;;
53797;SDS011;39707;45.384;9.300;2024-02-14T03:49:58;1.70;;;1.65;;
53797;SDS011;39707;45.384;9.300;2024-02-14T03:52:24;3.55;;;1.98;;
53797;SDS011;39707;45.384;9.300;2024-02-14T03:54:50;1.63;;;1.45;;
53797;SDS011;39707;45.384;9.300;2024-02-14T03:57:16;1.60;;;1.50;;
53797;SDS011;39707;45.384;9.300;2024-02-14T03:59:44;1.50;;;0.63;;
53797;SDS011;39707;45.384;9.300;2024-02-14T04:02:10;0.98;;;0.98;;
53797;SDS011;39707;45.384;9.300;2024-02-14T04:04:36;3.60;;;2.08;;
53797;SDS011;39707;45.384;9.300;2024-02-14T04:07:04;1.63;;;1.50;;
53797;SDS011;39707;45.384;9.300;2024-02-14T04:09:32;2.45;;;1.33;;
53797;SDS011;39707;45.384;9.300;2024-02-14T04:11:58;1.13;;;1.02;;
53797;SDS011;39707;45.384;9.300;2024-02-14T04:14:24;1.42;;;1.33;;
53797;SDS011;39707;45.384;9.300;2024-02-14T04:16:51;2.00;;;1.95;;
53797;SDS011;39707;45.384;9.300;2024-02-14T04:19:17;1.80;;;1.55;;
53797;SDS011;39707;45.384;9.300;2024-02-14T04:21:43;2.53;;;1.75;;
53797;SDS011;39707;45.384;9.300;2024-02-14T04:24:11;0.93;;;0.93;;
53797;SDS011;39707;45.384;9.300;2024-02-14T04:26:37;4.40;;;2.78;;
53797;SDS011;39707;45.384;9.300;2024-02-14T04:29:03;1.15;;;1.15;;
53797;SDS011;39707;45.384;9.300;2024-02-14T04:31:29;1.98;;;1.88;;
53797;SDS011;39707;45.384;9.300;2024-02-14T04:33:56;1.25;;;1.10;;
53797;SDS011;39707;45.384;9.300;2024-02-14T04:36:22;3.00;;;1.33;;
53797;SDS011;39707;45.384;9.300;2024-02-14T04:38:49;1.73;;;1.58;;
53797;SDS011;39707;45.384;9.300;2024-02-14T04:41:15;2.13;;;1.95;;
53797;SDS011;39707;45.384;9.300;2024-02-14T04:43:41;4.88;;;1.42;;
53797;SDS011;39707;45.384;9.300;2024-02-14T04:46:07;1.45;;;1.38;;
53797;SDS011;39707;45.384;9.300;2024-02-14T04:48:37;0.47;;;0.47;;
53797;SDS011;39707;45.384;9.300;2024-02-14T04:51:04;1.10;;;1.00;;
53797;SDS011;39707;45.384;9.300;2024-02-14T04:53:31;0.73;;;0.73;;
53797;SDS011;39707;45.384;9.300;2024-02-14T04:55:57;2.33;;;2.15;;
53797;SDS011;39707;45.384;9.300;2024-02-14T04:58:23;2.15;;;2.05;;
53797;SDS011;39707;45.384;9.300;2024-02-14T05:00:49;0.57;;;0.57;;
53797;SDS011;39707;45.384;9.300;2024-02-14T05:03:16;1.17;;;1.05;;
53797;SDS011;39707;45.384;9.300;2024-02-14T05:05:42;1.13;;;1.08;;
53797;SDS011;39707;45.384;9.300;2024-02-14T05:08:08;1.40;;;1.30;;
53797;SDS011;39707;45.384;9.300;2024-02-14T05:10:35;1.67;;;1.58;;
53797;SDS011;39707;45.384;9.300;2024-02-14T05:13:01;0.47;;;0.47;;
53797;SDS011;39707;45.384;9.300;2024-02-14T05:15:27;1.23;;;1.23;;
53797;SDS011;39707;45.384;9.300;2024-02-14T05:17:53;1.23;;;1.13;;
53797;SDS011;39707;45.384;9.300;2024-02-14T05:20:21;6.90;;;1.55;;
53797;SDS011;39707;45.384;9.300;2024-02-14T05:22:48;1.50;;;1.40;;
53797;SDS011;39707;45.384;9.300;2024-02-14T05:25:14;2.80;;;1.70;;
53797;SDS011;39707;45.384;9.300;2024-02-14T05:27:40;2.35;;;2.17;;
53797;SDS011;39707;45.384;9.300;2024-02-14T05:30:06;3.85;;;3.30;;
53797;SDS011;39707;45.384;9.300;2024-02-14T05:32:34;0.85;;;0.85;;
53797;SDS011;39707;45.384;9.300;2024-02-14T05:35:00;0.95;;;0.95;;
53797;SDS011;39707;45.384;9.300;2024-02-14T05:37:26;2.33;;;1.20;;
53797;SDS011;39707;45.384;9.300;2024-02-14T05:39:54;1.33;;;1.23;;
53797;SDS011;39707;45.384;9.300;2024-02-14T05:42:20;1.48;;;1.42;;
53797;SDS011;39707;45.384;9.300;2024-02-14T05:44:46;1.80;;;1.70;;
53797;SDS011;39707;45.384;9.300;2024-02-14T05:47:16;1.70;;;1.63;;
53797;SDS011;39707;45.384;9.300;2024-02-14T05:49:43;2.05;;;1.33;;
53797;SDS011;39707;45.384;9.300;2024-02-14T05:52:10;0.93;;;0.93;;
53797;SDS011;39707;45.384;9.300;2024-02-14T05:54:36;0.95;;;0.95;;
53797;SDS011;39707;45.384;9.300;2024-02-14T05:57:03;3.10;;;1.95;;
53797;SDS011;39707;45.384;9.300;2024-02-14T05:59:30;1.88;;;1.77;;
53797;SDS011;39707;45.384;9.300;2024-02-14T06:01:57;1.92;;;1.83;;
53797;SDS011;39707;45.384;9.300;2024-02-14T06:04:24;1.25;;;1.20;;
53797;SDS011;39707;45.384;9.300;2024-02-14T06:06:50;1.50;;;1.40;;
53797;SDS011;39707;45.384;9.300;2024-02-14T06:09:16;3.75;;;1.48;;
53797;SDS011;39707;45.384;9.300;2024-02-14T06:11:42;1.92;;;1.83;;
53797;SDS011;39707;45.384;9.300;2024-02-14T06:14:09;1.15;;;1.05;;
53797;SDS011;39707;45.384;9.300;2024-02-14T06:16:35;2.47;;;2.25;;
53797;SDS011;39707;45.384;9.300;2024-02-14T06:19:01;1.02;;;1.02;;
53797;SDS011;39707;45.384;9.300;2024-02-14T06:21:29;1.42;;;1.42;;
53797;SDS011;39707;45.384;9.300;2024-02-14T06:23:55;1.13;;;1.13;;
53797;SDS011;39707;45.384;9.300;2024-02-14T06:26:23;3.35;;;2.72;;
53797;SDS011;39707;45.384;9.300;2024-02-14T06:28:50;1.05;;;1.05;;
53797;SDS011;39707;45.384;9.300;2024-02-14T06:31:19;4.43;;;2.22;;
53797;SDS011;39707;45.384;9.300;2024-02-14T06:33:46;1.65;;;1.55;;
53797;SDS011;39707;45.384;9.300;2024-02-14T06:36:12;2.47;;;2.28;;
53797;SDS011;39707;45.384;9.300;2024-02-14T06:38:40;1.70;;;1.40;;
53797;SDS011;39707;45.384;9.300;2024-02-14T06:41:06;1.23;;;1.17;;
53797;SDS011;39707;45.384;9.300;2024-02-14T06:43:33;3.35;;;2.50;;
53797;SDS011;39707;45.384;9.300;2024-02-14T06:45:58;1.92;;;1.83;;
53797;SDS011;39707;45.384;9.300;2024-02-14T06:48:24;4.32;;;1.33;;
53797;SDS011;39707;45.384;9.300;2024-02-14T06:50:50;2.10;;;2.00;;
53797;SDS011;39707;45.384;9.300;2024-02-14T06:53:17;0.95;;;0.90;;
53797;SDS011;39707;45.384;9.300;2024-02-14T06:55:43;4.13;;;1.77;;
53797;SDS011;39707;45.384;9.300;2024-02-14T06:58:09;5.40;;;3.78;;
53797;SDS011;39707;45.384;9.300;2024-02-14T07:00:35;1.35;;;1.15;;
53797;SDS011;39707;45.384;9.300;2024-02-14T07:03:02;2.70;;;2.42;;
53797;SDS011;39707;45.384;9.300;2024-02-14T07:05:29;1.65;;;1.60;;
53797;SDS011;39707;45.384;9.300;2024-02-14T07:07:55;1.90;;;1.80;;
53797;SDS011;39707;45.384;9.300;2024-02-14T07:10:31;1.73;;;1.52;;
53797;SDS011;39707;45.384;9.300;2024-02-14T07:12:59;2.83;;;1.17;;
53797;SDS011;39707;45.384;9.300;2024-02-14T07:15:25;3.08;;;2.78;;
53797;SDS011;39707;45.384;9.300;2024-02-14T07:17:55;2.70;;;2.60;;
53797;SDS011;39707;45.384;9.300;2024-02-14T07:20:22;1.73;;;1.65;;
53797;SDS011;39707;45.384;9.300;2024-02-14T07:22:51;3.65;;;1.80;;
53797;SDS011;39707;45.384;9.300;2024-02-14T07:25:18;1.90;;;1.80;;
53797;SDS011;39707;45.384;9.300;2024-02-14T07:27:44;3.08;;;2.88;;
53797;SDS011;39707;45.384;9.300;2024-02-14T07:30:13;1.13;;;1.08;;
53797;SDS011;39707;45.384;9.300;2024-02-14T07:32:39;1.17;;;1.17;;
53797;SDS011;39707;45.384;9.300;2024-02-14T07:35:05;1.10;;;1.00;;
53797;SDS011;39707;45.384;9.300;2024-02-14T07:37:31;8.75;;;2.17;;
53797;SDS011;39707;45.384;9.300;2024-02-14T07:39:58;3.50;;;2.60;;
53797;SDS011;39707;45.384;9.300;2024-02-14T07:42:24;1.77;;;1.67;;
53797;SDS011;39707;45.384;9.300;2024-02-14T07:44:50;2.50;;;2.30;;
53797;SDS011;39707;45.384;9.300;2024-02-14T07:47:16;4.40;;;3.28;;
53797;SDS011;39707;45.384;9.300;2024-02-14T07:49:42;2.53;;;2.35;;
53797;SDS011;39707;45.384;9.300;2024-02-14T07:52:08;1.73;;;1.65;;
53797;SDS011;39707;45.384;9.300;2024-02-14T07:54:34;0.90;;;0.90;;
53797;SDS011;39707;45.384;9.300;2024-02-14T07:57:01;2.35;;;2.13;;
53797;SDS011;39707;45.384;9.300;2024-02-14T07:59:27;1.58;;;1.17;;
53797;SDS011;39707;45.384;9.300;2024-02-14T08:01:53;2.63;;;1.23;;
53797;SDS011;39707;45.384;9.300;2024-02-14T08:04:19;2.00;;;1.23;;
53797;SDS011;39707;45.384;9.300;2024-02-14T08:06:46;2.03;;;1.35;;
53797;SDS011;39707;45.384;9.300;2024-02-14T08:09:14;2.05;;;1.95;;
53797;SDS011;39707;45.384;9.300;2024-02-14T08:11:40;3.83;;;1.65;;
53797;SDS011;39707;45.384;9.300;2024-02-14T08:14:06;1.27;;;1.27;;
53797;SDS011;39707;45.384;9.300;2024-02-14T08:16:32;3.20;;;2.45;;
53797;SDS011;39707;45.384;9.300;2024-02-14T08:18:58;1.38;;;1.35;;
53797;SDS011;39707;45.384;9.300;2024-02-14T08:21:27;1.52;;;1.42;;
53797;SDS011;39707;45.384;9.300;2024-02-14T08:23:53;1.40;;;1.33;;
53797;SDS011;39707;45.384;9.300;2024-02-14T08:26:20;4.43;;;1.80;;
53797;SDS011;39707;45.384;9.300;2024-02-14T08:28:47;1.08;;;1.08;;
53797;SDS011;39707;45.384;9.300;2024-02-14T08:31:14;2.17;;;1.98;;
53797;SDS011;39707;45.384;9.300;2024-02-14T08:33:40;1.92;;;1.83;;
53797;SDS011;39707;45.384;9.300;2024-02-14T08:36:06;1.88;;;1.58;;
53797;SDS011;39707;45.384;9.300;2024-02-14T08:38:33;3.60;;;1.73;;
53797;SDS011;39707;45.384;9.300;2024-02-14T08:41:00;1.00;;;1.00;;
53797;SDS011;39707;45.384;9.300;2024-02-14T08:43:29;1.90;;;1.17;;
53797;SDS011;39707;45.384;9.300;2024-02-14T08:45:55;1.98;;;1.88;;
53797;SDS011;39707;45.384;9.300;2024-02-14T08:48:22;3.45;;;1.88;;
53797;SDS011;39707;45.384;9.300;2024-02-14T08:50:48;3.88;;;1.38;;
53797;SDS011;39707;45.384;9.300;2024-02-14T08:53:14;1.48;;;1.38;;
53797;SDS011;39707;45.384;9.300;2024-02-14T08:55:41;1.23;;;1.13;;
53797;SDS011;39707;45.384;9.300;2024-02-14T08:58:07;0.70;;;0.70;;
53797;SDS011;39707;45.384;9.300;2024-02-14T09:00:36;1.92;;;1.67;;
53797;SDS011;39707;45.384;9.300;2024-02-14T09:03:03;1.38;;;1.30;;
53797;SDS011;39707;45.384;9.300;2024-02-14T09:05:29;1.10;;;1.08;;
53797;SDS011;39707;45.384;9.300;2024-02-14T09:07:55;2.05;;;1.92;;
53797;SDS011;39707;45.384;9.300;2024-02-14T09:10:21;2.90;;;1.50;;
53797;SDS011;39707;45.384;9.300;2024-02-14T09:12:47;0.95;;;0.95;;
53797;SDS011;39707;45.384;9.300;2024-02-14T09:15:14;2.13;;;1.15;;
53797;SDS011;39707;45.384;9.300;2024-02-14T09:17:40;0.90;;;0.90;;
53797;SDS011;39707;45.384;9.300;2024-02-14T09:20:07;1.70;;;1.60;;
53797;SDS011;39707;45.384;9.300;2024-02-14T09:22:37;2.22;;;1.80;;
53797;SDS011;39707;45.384;9.300;2024-02-14T09:25:03;1.25;;;1.20;;
53797;SDS011;39707;45.384;9.300;2024-02-14T09:27:29;1.67;;;1.38;;
53797;SDS011;39707;45.384;9.300;2024-02-14T09:29:55;2.30;;;2.05;;
53797;SDS011;39707;45.384;9.300;2024-02-14T09:32:21;1.50;;;1.23;;
53797;SDS011;39707;45.384;9.300;2024-02-14T09:34:47;1.10;;;1.02;;
53797;SDS011;39707;45.384;9.300;2024-02-14T09:37:13;2.00;;;1.90;;
53797;SDS011;39707;45.384;9.300;2024-02-14T09:39:39;2.95;;;2.25;;
53797;SDS011;39707;45.384;9.300;2024-02-14T09:42:08;4.75;;;2.55;;
53797;SDS011;39707;45.384;9.300;2024-02-14T09:44:35;2.45;;;2.10;;
53797;SDS011;39707;45.384;9.300;2024-02-14T09:47:01;2.13;;;1.30;;
53797;SDS011;39707;45.384;9.300;2024-02-14T09:49:29;0.68;;;0.68;;
53797;SDS011;39707;45.384;9.300;2024-02-14T09:51:56;2.08;;;1.92;;
53797;SDS011;39707;45.384;9.300;2024-02-14T09:54:23;1.43;;;1.33;;
53797;SDS011;39707;45.384;9.300;2024-02-14T09:56:52;1.88;;;1.77;;
53797;SDS011;39707;45.384;9.300;2024-02-14T09:59:20;1.17;;;0.95;;
53797;SDS011;39707;45.384;9.300;2024-02-14T10:01:47;2.58;;;1.55;;
53797;SDS011;39707;45.384;9.300;2024-02-14T10:04:16;0.98;;;0.98;;
53797;SDS011;39707;45.384;9.300;2024-02-14T10:06:44;1.75;;;1.63;;
53797;SDS011;39707;45.384;9.300;2024-02-14T10:09:10;3.60;;;3.25;;
53797;SDS011;39707;45.384;9.300;2024-02-14T10:11:37;2.45;;;2.25;;
53797;SDS011;39707;45.384;9.300;2024-02-14T10:14:05;1.20;;;1.17;;
53797;SDS011;39707;45.384;9.300;2024-02-14T10:16:34;4.13;;;1.65;;
53797;SDS011;39707;45.384;9.300;2024-02-14T10:19:01;2.17;;;2.05;;
53797;SDS011;39707;45.384;9.300;2024-02-14T10:21:28;2.47;;;2.30;;
53797;SDS011;39707;45.384;9.300;2024-02-14T10:23:59;1.65;;;1.55;;
53797;SDS011;39707;45.384;9.300;2024-02-14T10:26:25;3.60;;;2.45;;
53797;SDS011;39707;45.384;9.300;2024-02-14T10:28:51;1.63;;;1.52;;
53797;SDS011;39707;45.384;9.300;2024-02-14T10:31:17;1.45;;;1.42;;
53797;SDS011;39707;45.384;9.300;2024-02-14T10:33:43;3.63;;;2.60;;
53797;SDS011;39707;45.384;9.300;2024-02-14T10:36:10;2.00;;;1.83;;
53797;SDS011;39707;45.384;9.300;2024-02-14T10:38:38;1.67;;;1.58;;
53797;SDS011;39707;45.384;9.300;2024-02-14T10:41:05;1.67;;;1.57;;
53797;SDS011;39707;45.384;9.300;2024-02-14T10:43:32;4.05;;;1.10;;
53797;SDS011;39707;45.384;9.300;2024-02-14T10:45:59;13.95;;;9.27;;
53797;SDS011;39707;45.384;9.300;2024-02-14T10:48:25;57.97;;;32.25;;
53797;SDS011;39707;45.384;9.300;2024-02-14T10:50:54;24.13;;;21.70;;
53797;SDS011;39707;45.384;9.300;2024-02-14T10:53:21;8.82;;;7.65;;
53797;SDS011;39707;45.384;9.300;2024-02-14T10:55:49;1.48;;;1.38;;
53797;SDS011;39707;45.384;9.300;2024-02-14T10:58:18;2.38;;;2.13;;
53797;SDS011;39707;45.384;9.300;2024-02-14T11:00:44;1.15;;;1.15;;
53797;SDS011;39707;45.384;9.300;2024-02-14T11:03:12;1.45;;;1.35;;
53797;SDS011;39707;45.384;9.300;2024-02-14T11:05:44;3.00;;;2.08;;
53797;SDS011;39707;45.384;9.300;2024-02-14T11:08:13;2.10;;;1.95;;
53797;SDS011;39707;45.384;9.300;2024-02-14T11:10:39;1.70;;;1.55;;
53797;SDS011;39707;45.384;9.300;2024-02-14T11:13:09;5.88;;;2.60;;
53797;SDS011;39707;45.384;9.300;2024-02-14T11:15:35;3.30;;;1.77;;
53797;SDS011;39707;45.384;9.300;2024-02-14T11:18:05;2.72;;;2.03;;
53797;SDS011;39707;45.384;9.300;2024-02-14T11:20:35;3.17;;;1.17;;
53797;SDS011;39707;45.384;9.300;2024-02-14T11:23:05;2.67;;;2.22;;
53797;SDS011;39707;45.384;9.300;2024-02-14T11:25:32;1.38;;;1.27;;
53797;SDS011;39707;45.384;9.300;2024-02-14T11:30:30;0.95;;;0.95;;
53797;SDS011;39707;45.384;9.300;2024-02-14T11:35:41;6.10;;;2.85;;
53797;SDS011;39707;45.384;9.300;2024-02-14T11:38:08;0.98;;;0.95;;
53797;SDS011;39707;45.384;9.300;2024-02-14T11:40:34;2.53;;;2.33;;
53797;SDS011;39707;45.384;9.300;2024-02-14T11:43:09;1.13;;;1.08;;
53797;SDS011;39707;45.384;9.300;2024-02-14T11:45:35;2.13;;;1.98;;
53797;SDS011;39707;45.384;9.300;2024-02-14T11:48:04;4.07;;;3.20;;
53797;SDS011;39707;45.384;9.300;2024-02-14T11:50:33;5.00;;;1.27;;
53797;SDS011;39707;45.384;9.300;2024-02-14T11:53:00;1.90;;;1.77;;
53797;SDS011;39707;45.384;9.300;2024-02-14T11:55:27;2.92;;;2.72;;
53797;SDS011;39707;45.384;9.300;2024-02-14T11:57:54;0.80;;;0.80;;
53797;SDS011;39707;45.384;9.300;2024-02-14T12:00:21;8.23;;;2.88;;
53797;SDS011;39707;45.384;9.300;2024-02-14T12:02:47;2.28;;;1.20;;
53797;SDS011;39707;45.384;9.300;2024-02-14T12:05:16;2.22;;;2.13;;
53797;SDS011;39707;45.384;9.300;2024-02-14T12:10:09;0.45;;;0.43;;
53797;SDS011;39707;45.384;9.300;2024-02-14T12:12:37;1.63;;;1.52;;
53797;SDS011;39707;45.384;9.300;2024-02-14T12:15:03;4.93;;;1.42;;
53797;SDS011;39707;45.384;9.300;2024-02-14T12:17:31;1.35;;;1.25;;
53797;SDS011;39707;45.384;9.300;2024-02-14T12:20:09;3.05;;;1.75;;
53797;SDS011;39707;45.384;9.300;2024-02-14T12:22:37;1.35;;;1.35;;
53797;SDS011;39707;45.384;9.300;2024-02-14T12:25:05;2.03;;;1.83;;
53797;SDS011;39707;45.384;9.300;2024-02-14T12:27:32;2.28;;;2.13;;
53797;SDS011;39707;45.384;9.300;2024-02-14T12:29:59;1.20;;;1.15;;
53797;SDS011;39707;45.384;9.300;2024-02-14T12:32:25;1.15;;;1.05;;
53797;SDS011;39707;45.384;9.300;2024-02-14T12:34:55;1.65;;;1.23;;
53797;SDS011;39707;45.384;9.300;2024-02-14T12:37:21;0.95;;;0.93;;
53797;SDS011;39707;45.384;9.300;2024-02-14T12:39:47;2.08;;;1.98;;
53797;SDS011;39707;45.384;9.300;2024-02-14T12:42:14;2.10;;;1.95;;
53797;SDS011;39707;45.384;9.300;2024-02-14T12:44:40;1.40;;;1.15;;
53797;SDS011;39707;45.384;9.300;2024-02-14T12:47:07;2.58;;;1.70;;
53797;SDS011;39707;45.384;9.300;2024-02-14T12:49:33;1.75;;;1.65;;
53797;SDS011;39707;45.384;9.300;2024-02-14T12:51:59;0.63;;;0.63;;
53797;SDS011;39707;45.384;9.300;2024-02-14T12:54:30;1.65;;;1.55;;
53797;SDS011;39707;45.384;9.300;2024-02-14T12:56:56;0.88;;;0.88;;
53797;SDS011;39707;45.384;9.300;2024-02-14T12:59:22;1.88;;;1.77;;
53797;SDS011;39707;45.384;9.300;2024-02-14T13:01:48;1.52;;;1.45;;
53797;SDS011;39707;45.384;9.300;2024-02-14T13:04:14;2.15;;;1.40;;
53797;SDS011;39707;45.384;9.300;2024-02-14T13:06:41;0.57;;;0.57;;
53797;SDS011;39707;45.384;9.300;2024-02-14T13:09:11;1.13;;;1.02;;
53797;SDS011;39707;45.384;9.300;2024-02-14T13:11:39;1.02;;;0.82;;
53797;SDS011;39707;45.384;9.300;2024-02-14T13:14:09;1.75;;;0.88;;
53797;SDS011;39707;45.384;9.300;2024-02-14T13:16:57;0.98;;;0.98;;
53797;SDS011;39707;45.384;9.300;2024-02-14T13:19:24;1.87;;;1.57;;
53797;SDS011;39707;45.384;9.300;2024-02-14T13:21:50;0.90;;;0.90;;
53797;SDS011;39707;45.384;9.300;2024-02-14T13:24:18;1.55;;;1.15;;
53797;SDS011;39707;45.384;9.300;2024-02-14T13:26:45;0.50;;;0.50;;
53797;SDS011;39707;45.384;9.300;2024-02-14T13:29:57;16.42;;;11.88;;
53797;SDS011;39707;45.384;9.300;2024-02-14T13:32:23;68.15;;;38.55;;
53797;SDS011;39707;45.384;9.300;2024-02-14T13:34:52;60.42;;;39.53;;
53797;SDS011;39707;45.384;9.300;2024-02-14T13:37:18;22.85;;;17.23;;
53797;SDS011;39707;45.384;9.300;2024-02-14T13:39:45;16.25;;;10.00;;
53797;SDS011;39707;45.384;9.300;2024-02-14T13:42:12;5.88;;;4.55;;
53797;SDS011;39707;45.384;9.300;2024-02-14T13:44:38;4.25;;;2.63;;
53797;SDS011;39707;45.384;9.300;2024-02-14T13:47:04;6.53;;;4.47;;
53797;SDS011;39707;45.384;9.300;2024-02-14T13:49:31;6.50;;;3.25;;
53797;SDS011;39707;45.384;9.300;2024-02-14T13:51:57;3.25;;;1.55;;
53797;SDS011;39707;45.384;9.300;2024-02-14T13:54:23;2.00;;;1.90;;
53797;SDS011;39707;45.384;9.300;2024-02-14T13:56:49;1.38;;;1.38;;
53797;SDS011;39707;45.384;9.300;2024-02-14T13:59:15;1.23;;;1.13;;
53797;SDS011;39707;45.384;9.300;2024-02-14T14:01:42;2.15;;;1.95;;
53797;SDS011;39707;45.384;9.300;2024-02-14T14:04:08;1.00;;;0.98;;
53797;SDS011;39707;45.384;9.300;2024-02-14T14:06:34;0.50;;;0.50;;
53797;SDS011;39707;45.384;9.300;2024-02-14T14:09:00;0.50;;;0.50;;
53797;SDS011;39707;45.384;9.300;2024-02-14T14:11:28;0.57;;;0.57;;
53797;SDS011;39707;45.384;9.300;2024-02-14T14:13:54;5.25;;;1.30;;
53797;SDS011;39707;45.384;9.300;2024-02-14T14:16:20;1.13;;;1.10;;
53797;SDS011;39707;45.384;9.300;2024-02-14T14:19:05;1.17;;;1.17;;
53797;SDS011;39707;45.384;9.300;2024-02-14T14:21:33;1.13;;;0.52;;
53797;SDS011;39707;45.384;9.300;2024-02-14T14:23:59;0.75;;;0.75;;
53797;SDS011;39707;45.384;9.300;2024-02-14T14:26:25;1.80;;;1.70;;
53797;SDS011;39707;45.384;9.300;2024-02-14T14:28:52;1.07;;;1.03;;
53797;SDS011;39707;45.384;9.300;2024-02-14T14:31:19;1.75;;;1.65;;
53797;SDS011;39707;45.384;9.300;2024-02-14T14:33:45;1.55;;;1.48;;
53797;SDS011;39707;45.384;9.300;2024-02-14T14:36:11;0.70;;;0.50;;
53797;SDS011;39707;45.384;9.300;2024-02-14T14:38:37;1.33;;;1.17;;
53797;SDS011;39707;45.384;9.300;2024-02-14T14:41:05;0.20;;;0.20;;
53797;SDS011;39707;45.384;9.300;2024-02-14T14:43:32;2.13;;;1.17;;
53797;SDS011;39707;45.384;9.300;2024-02-14T14:45:58;0.77;;;0.75;;
53797;SDS011;39707;45.384;9.300;2024-02-14T14:48:25;1.52;;;0.95;;
53797;SDS011;39707;45.384;9.300;2024-02-14T14:50:51;1.13;;;0.73;;
53797;SDS011;39707;45.384;9.300;2024-02-14T14:53:17;2.85;;;1.20;;